createdAt,value
2023-08-05T00:01:27.044Z,16.07
2023-08-05T00:03:53.485Z,16.05
2023-08-05T00:06:19.946Z,16.09
2023-08-05T00:08:46.323Z,16.08
2023-08-05T00:11:12.731Z,16.14
2023-08-05T00:13:39.126Z,16.21
2023-08-05T00:16:05.541Z,15.93
2023-08-05T00:18:31.947Z,16.11
2023-08-05T00:20:58.318Z,16.16
2023-08-05T00:23:24.696Z,16.14
2023-08-05T00:25:51.080Z,15.94
2023-08-05T00:28:17.560Z,16.08
2023-08-05T00:30:43.946Z,15.94
2023-08-05T00:33:10.341Z,15.92
2023-08-05T00:35:36.690Z,16.25
2023-08-05T00:38:03.106Z,16.24
2023-08-05T00:40:29.503Z,16.03
2023-08-05T00:42:55.927Z,15.92
2023-08-05T00:45:22.490Z,15.98
2023-08-05T00:47:48.963Z,16.05
2023-08-05T00:50:15.769Z,16.05
2023-08-05T00:52:43.484Z,16.00
2023-08-05T00:55:09.987Z,15.86
2023-08-05T00:57:36.506Z,15.82
2023-08-05T01:00:02.962Z,15.91
2023-08-05T01:02:29.423Z,15.91
2023-08-05T01:04:55.856Z,15.72
2023-08-05T01:07:22.721Z,15.77
2023-08-05T01:09:50.023Z,15.69
2023-08-05T01:12:16.496Z,15.70
2023-08-05T01:14:42.870Z,15.83
2023-08-05T01:17:09.268Z,15.70
2023-08-05T01:19:35.765Z,15.63
2023-08-05T01:22:24.070Z,15.74
2023-08-05T01:24:59.504Z,15.71
2023-08-05T01:27:25.939Z,15.69
2023-08-05T01:29:52.936Z,15.84
2023-08-05T01:32:19.624Z,15.80
2023-08-05T01:34:46.679Z,15.96
2023-08-05T01:37:13.139Z,16.08
2023-08-05T01:39:39.522Z,15.96
2023-08-05T01:42:06.652Z,15.79
2023-08-05T01:44:33.094Z,15.78
2023-08-05T01:46:59.532Z,15.69
2023-08-05T01:49:25.931Z,15.62
2023-08-05T01:51:52.321Z,15.67
2023-08-05T01:54:18.698Z,15.65
2023-08-05T01:56:45.132Z,15.55
2023-08-05T01:59:12.611Z,15.50
2023-08-05T02:01:42.731Z,15.68
2023-08-05T02:04:09.264Z,15.66
2023-08-05T02:06:35.706Z,15.60
2023-08-05T02:09:02.087Z,15.67
2023-08-05T02:11:28.460Z,15.54
2023-08-05T02:13:54.829Z,15.75
2023-08-05T02:16:21.361Z,15.68
2023-08-05T02:18:47.838Z,15.55
2023-08-05T02:21:14.206Z,15.60
2023-08-05T02:23:40.607Z,15.67
2023-08-05T02:26:07.001Z,15.63
2023-08-05T02:28:34.488Z,15.58
2023-08-05T02:31:00.909Z,15.59
2023-08-05T02:33:27.327Z,15.65
2023-08-05T02:36:00.650Z,15.65
2023-08-05T02:38:27.057Z,15.75
2023-08-05T02:40:53.892Z,15.74
2023-08-05T02:43:20.264Z,15.83
2023-08-05T02:45:58.310Z,15.60
2023-08-05T02:48:25.886Z,15.57
2023-08-05T02:50:53.098Z,15.50
2023-08-05T02:53:19.854Z,15.38
2023-08-05T02:55:46.867Z,15.47
2023-08-05T02:58:15.529Z,15.53
2023-08-05T03:00:42.204Z,15.50
2023-08-05T03:03:09.301Z,15.54
2023-08-05T03:05:36.092Z,15.68
2023-08-05T03:08:02.682Z,15.57
2023-08-05T03:10:29.068Z,15.46
2023-08-05T03:12:55.441Z,15.73
2023-08-05T03:15:21.873Z,15.56
2023-08-05T03:17:48.283Z,15.35
2023-08-05T03:20:27.948Z,15.43
2023-08-05T03:22:55.098Z,15.56
2023-08-05T03:25:22.136Z,15.51
2023-08-05T03:27:49.594Z,15.61
2023-08-05T03:30:16.485Z,15.58
2023-08-05T03:32:43.020Z,15.56
2023-08-05T03:35:09.522Z,15.31
2023-08-05T03:37:35.957Z,15.39
2023-08-05T03:40:02.362Z,15.32
2023-08-05T03:42:28.735Z,15.36
2023-08-05T03:44:55.136Z,15.24
2023-08-05T03:47:21.564Z,15.18
2023-08-05T03:49:47.987Z,15.23
2023-08-05T03:52:14.411Z,15.21
2023-08-05T03:54:40.765Z,15.17
2023-08-05T03:57:07.220Z,15.04
2023-08-05T03:59:33.621Z,15.14
2023-08-05T04:01:59.998Z,15.14
2023-08-05T04:04:26.377Z,15.19
2023-08-05T04:06:52.842Z,15.18
2023-08-05T04:09:19.218Z,15.14
2023-08-05T04:11:45.759Z,15.26
2023-08-05T04:14:12.222Z,15.07
2023-08-05T04:16:38.624Z,15.02
2023-08-05T04:19:05.057Z,15.11
2023-08-05T04:21:31.493Z,14.92
2023-08-05T04:23:57.896Z,14.95
2023-08-05T04:26:24.330Z,15.15
2023-08-05T04:28:50.773Z,15.16
2023-08-05T04:31:17.329Z,15.22
2023-08-05T04:33:43.724Z,15.17
2023-08-05T04:36:10.259Z,15.05
2023-08-05T04:38:36.711Z,14.89
2023-08-05T04:41:03.080Z,14.92
2023-08-05T04:43:29.467Z,14.92
2023-08-05T04:45:56.001Z,14.91
2023-08-05T04:48:22.445Z,14.90
2023-08-05T04:50:48.941Z,15.00
2023-08-05T04:53:15.320Z,14.94
2023-08-05T04:55:41.694Z,14.84
2023-08-05T04:58:08.136Z,14.92
2023-08-05T05:00:34.506Z,14.91
2023-08-05T05:03:01.141Z,14.86
2023-08-05T05:05:27.605Z,14.89
2023-08-05T05:07:54.301Z,14.98
2023-08-05T05:10:20.677Z,14.94
2023-08-05T05:12:47.041Z,15.02
2023-08-05T05:15:13.404Z,14.86
2023-08-05T05:17:39.803Z,14.94
2023-08-05T05:20:06.821Z,14.94
2023-08-05T05:22:33.703Z,14.98
2023-08-05T05:25:00.103Z,14.85
2023-08-05T05:27:26.548Z,15.01
2023-08-05T05:29:52.964Z,14.90
2023-08-05T05:32:19.378Z,14.96
2023-08-05T05:34:45.822Z,14.91
2023-08-05T05:37:12.192Z,15.02
2023-08-05T05:39:38.561Z,15.08
2023-08-05T05:42:05.324Z,15.09
2023-08-05T05:44:31.710Z,15.19
2023-08-05T05:46:58.149Z,15.13
2023-08-05T05:49:24.585Z,15.13
2023-08-05T05:51:50.980Z,15.05
2023-08-05T05:54:17.450Z,15.05
2023-08-05T05:56:43.825Z,14.95
2023-08-05T05:59:10.359Z,15.04
2023-08-05T06:01:36.814Z,15.10
2023-08-05T06:04:03.347Z,15.11
2023-08-05T06:06:29.739Z,15.24
2023-08-05T06:08:56.139Z,15.17
2023-08-05T06:11:22.508Z,15.10
2023-08-05T06:13:48.870Z,15.11
2023-08-05T06:16:15.265Z,15.16
2023-08-05T06:18:42.773Z,15.23
2023-08-05T06:21:10.287Z,15.21
2023-08-05T06:23:36.706Z,15.28
2023-08-05T06:26:03.192Z,15.28
2023-08-05T06:28:29.586Z,15.25
2023-08-05T06:30:56.474Z,15.24
2023-08-05T06:33:23.075Z,15.38
2023-08-05T06:35:49.466Z,15.32
2023-08-05T06:38:15.838Z,15.43
2023-08-05T06:40:42.243Z,15.32
2023-08-05T06:43:10.088Z,15.43
2023-08-05T06:45:36.468Z,15.53
2023-08-05T06:48:02.971Z,15.43
2023-08-05T06:50:29.364Z,15.46
2023-08-05T06:52:55.731Z,15.50
2023-08-05T06:55:22.161Z,15.47
2023-08-05T06:57:48.535Z,15.54
2023-08-05T07:00:15.622Z,15.58
2023-08-05T07:02:43.275Z,15.43
2023-08-05T07:05:09.809Z,15.54
2023-08-05T07:07:36.190Z,15.64
2023-08-05T07:10:02.573Z,15.60
2023-08-05T07:12:29.187Z,15.57
2023-08-05T07:14:55.616Z,15.65
2023-08-05T07:17:23.104Z,15.57
2023-08-05T07:19:50.528Z,15.61
2023-08-05T07:22:16.958Z,15.58
2023-08-05T07:24:43.333Z,15.60
2023-08-05T07:27:09.692Z,15.63
2023-08-05T07:29:36.134Z,15.69
2023-08-05T07:32:03.829Z,15.64
2023-08-05T07:34:30.245Z,15.78
2023-08-05T07:36:56.662Z,15.84
2023-08-05T07:39:23.065Z,15.84
2023-08-05T07:41:49.604Z,15.95
2023-08-05T07:44:16.265Z,15.83
2023-08-05T07:46:42.680Z,15.85
2023-08-05T07:49:09.079Z,15.92
2023-08-05T07:51:36.541Z,15.89
2023-08-05T07:54:02.939Z,15.83
2023-08-05T07:56:29.363Z,15.96
2023-08-05T07:58:56.031Z,16.01
2023-08-05T08:01:22.487Z,16.02
2023-08-05T08:03:49.682Z,16.08
2023-08-05T08:06:16.114Z,16.07
2023-08-05T08:08:43.658Z,16.15
2023-08-05T08:11:10.067Z,16.16
2023-08-05T08:13:36.599Z,16.17
2023-08-05T08:16:03.130Z,16.26
2023-08-05T08:18:29.604Z,16.23
2023-08-05T08:20:56.051Z,16.24
2023-08-05T08:23:22.433Z,16.11
2023-08-05T08:25:48.845Z,16.18
2023-08-05T08:28:15.225Z,16.42
2023-08-05T08:30:54.581Z,16.45
2023-08-05T08:33:22.055Z,16.49
2023-08-05T08:35:49.259Z,16.49
2023-08-05T08:38:16.809Z,16.55
2023-08-05T08:40:47.625Z,16.68
2023-08-05T08:43:17.128Z,16.64
2023-08-05T08:45:44.010Z,16.62
2023-08-05T08:48:10.545Z,16.65
2023-08-05T08:50:37.337Z,16.68
2023-08-05T08:53:03.971Z,16.77
2023-08-05T08:55:30.935Z,16.91
2023-08-05T08:57:57.374Z,16.84
2023-08-05T09:00:23.939Z,16.93
2023-08-05T09:02:50.534Z,17.04
2023-08-05T09:05:17.042Z,16.83
2023-08-05T09:07:43.458Z,16.96
2023-08-05T09:10:11.200Z,17.04
2023-08-05T09:12:37.812Z,17.19
2023-08-05T09:15:04.499Z,17.16
2023-08-05T09:17:38.302Z,17.10
2023-08-05T09:20:14.939Z,17.07
2023-08-05T09:22:41.336Z,17.26
2023-08-05T09:25:08.716Z,17.20
2023-08-05T09:27:55.450Z,17.35
2023-08-05T09:30:22.304Z,17.28
2023-08-05T09:32:49.307Z,17.49
2023-08-05T09:35:16.768Z,17.61
2023-08-05T09:37:50.445Z,17.64
2023-08-05T09:40:18.172Z,17.59
2023-08-05T09:42:51.388Z,17.87
2023-08-05T09:45:19.349Z,18.09
2023-08-05T09:47:46.384Z,17.99
2023-08-05T09:50:13.382Z,17.96
2023-08-05T09:52:40.421Z,17.93
2023-08-05T09:55:11.606Z,17.95
2023-08-05T09:57:38.011Z,17.94
2023-08-05T10:00:05.754Z,18.14
2023-08-05T10:02:32.243Z,17.87
2023-08-05T10:04:59.105Z,18.00
2023-08-05T10:07:25.492Z,18.20
2023-08-05T10:09:52.245Z,18.38
2023-08-05T10:12:24.206Z,18.29
2023-08-05T10:14:50.747Z,18.25
2023-08-05T10:17:18.443Z,18.24
2023-08-05T10:19:48.638Z,18.20
2023-08-05T10:22:21.820Z,18.15
2023-08-05T10:24:59.403Z,18.35
2023-08-05T10:27:36.165Z,18.17
2023-08-05T10:30:09.935Z,18.04
2023-08-05T10:32:55.560Z,18.01
2023-08-05T10:35:41.315Z,18.12
2023-08-05T10:38:20.524Z,18.15
2023-08-05T10:40:54.098Z,18.08
2023-08-05T10:43:32.889Z,18.17
2023-08-05T10:46:00.900Z,18.34
2023-08-05T10:48:42.158Z,18.35
2023-08-05T10:51:18.886Z,18.44
2023-08-05T10:53:59.060Z,18.28
2023-08-05T10:56:33.623Z,18.44
2023-08-05T10:59:02.643Z,18.42
2023-08-05T11:01:56.025Z,18.42
2023-08-05T11:04:32.976Z,18.49
2023-08-05T11:07:01.870Z,18.56
2023-08-05T11:09:28.582Z,18.51
2023-08-05T11:11:55.279Z,18.47
2023-08-05T11:14:22.069Z,18.48
2023-08-05T11:16:48.461Z,18.58
2023-08-05T11:19:15.298Z,18.49
2023-08-05T11:21:46.228Z,18.70
2023-08-05T11:24:17.735Z,18.62
2023-08-05T11:26:44.181Z,18.29
2023-08-05T11:29:10.601Z,18.55
2023-08-05T11:31:37.105Z,18.63
2023-08-05T11:34:03.550Z,18.38
2023-08-05T11:36:30.331Z,18.25
2023-08-05T11:38:57.795Z,18.34
2023-08-05T11:41:25.629Z,18.42
2023-08-05T11:43:52.071Z,18.53
2023-08-05T11:46:28.449Z,18.54
2023-08-05T11:49:10.941Z,18.62
2023-08-05T11:51:51.806Z,18.74
2023-08-05T11:54:30.083Z,18.72
2023-08-05T11:56:57.416Z,18.77
2023-08-05T11:59:40.368Z,18.75
2023-08-05T12:02:08.656Z,18.85
2023-08-05T12:04:44.869Z,18.82
2023-08-05T12:07:12.610Z,18.85
2023-08-05T12:09:38.973Z,18.99
2023-08-05T12:12:05.409Z,19.01
2023-08-05T12:14:31.784Z,18.78
2023-08-05T12:16:58.180Z,19.09
2023-08-05T12:19:26.623Z,18.90
2023-08-05T12:21:53.314Z,18.84
2023-08-05T12:24:19.696Z,19.07
2023-08-05T12:26:46.103Z,19.28
2023-08-05T12:29:12.558Z,19.41
2023-08-05T12:31:38.981Z,19.39
2023-08-05T12:34:05.440Z,19.34
2023-08-05T12:36:31.852Z,19.31
2023-08-05T12:38:58.263Z,19.21
2023-08-05T12:41:24.805Z,19.20
2023-08-05T12:43:51.197Z,19.17
2023-08-05T12:46:17.576Z,19.13
2023-08-05T12:48:43.945Z,19.59
2023-08-05T12:51:10.344Z,19.37
2023-08-05T12:53:36.732Z,19.25
2023-08-05T12:56:03.300Z,19.33
2023-08-05T12:58:29.686Z,19.45
2023-08-05T13:00:56.175Z,19.64
2023-08-05T13:03:22.711Z,19.40
2023-08-05T13:05:49.185Z,19.36
2023-08-05T13:08:15.578Z,19.52
2023-08-05T13:10:41.977Z,19.51
2023-08-05T13:13:08.355Z,19.67
2023-08-05T13:15:34.729Z,19.76
2023-08-05T13:18:01.263Z,19.39
2023-08-05T13:20:27.681Z,19.75
2023-08-05T13:22:54.254Z,19.77
2023-08-05T13:25:20.613Z,19.63
2023-08-05T13:27:47.062Z,19.56
2023-08-05T13:30:13.432Z,19.51
2023-08-05T13:32:39.855Z,19.32
2023-08-05T13:35:06.711Z,19.40
2023-08-05T13:37:35.008Z,19.51
2023-08-05T13:40:01.385Z,19.66
2023-08-05T13:42:27.767Z,19.69
2023-08-05T13:44:54.211Z,19.78
2023-08-05T13:47:20.597Z,19.72
2023-08-05T13:49:46.994Z,19.33
2023-08-05T13:52:13.464Z,19.39
2023-08-05T13:54:39.820Z,19.35
2023-08-05T13:57:06.201Z,19.39
2023-08-05T13:59:32.721Z,19.27
2023-08-05T14:01:59.096Z,19.49
2023-08-05T14:04:25.481Z,19.52
2023-08-05T14:06:51.886Z,19.53
2023-08-05T14:09:18.282Z,19.61
2023-08-05T14:11:44.671Z,19.28
2023-08-05T14:14:11.058Z,19.42
2023-08-05T14:16:37.571Z,19.34
2023-08-05T14:19:04.004Z,19.36
2023-08-05T14:21:30.361Z,19.24
2023-08-05T14:23:56.770Z,19.31
2023-08-05T14:26:24.203Z,19.19
2023-08-05T14:28:50.616Z,19.11
2023-08-05T14:31:17.058Z,19.09
2023-08-05T14:33:43.488Z,19.02
2023-08-05T14:36:14.312Z,19.17
2023-08-05T14:38:40.871Z,19.23
2023-08-05T14:41:14.356Z,19.17
2023-08-05T14:43:40.753Z,18.82
2023-08-05T14:46:07.668Z,19.01
2023-08-05T14:48:34.062Z,19.14
2023-08-05T14:51:04.223Z,19.10
2023-08-05T14:53:30.857Z,19.21
2023-08-05T14:56:01.474Z,19.01
2023-08-05T14:58:27.854Z,19.04
2023-08-05T15:00:54.357Z,19.10
2023-08-05T15:03:20.881Z,19.21
2023-08-05T15:05:47.358Z,19.13
2023-08-05T15:08:13.733Z,19.05
2023-08-05T15:10:40.112Z,19.02
2023-08-05T15:13:06.522Z,19.02
2023-08-05T15:15:33.010Z,19.12
2023-08-05T15:17:59.446Z,19.02
2023-08-05T15:20:25.862Z,19.05
2023-08-05T15:22:52.223Z,19.14
2023-08-05T15:25:18.636Z,19.19
2023-08-05T15:27:44.999Z,19.05
2023-08-05T15:30:11.727Z,19.04
2023-08-05T15:32:38.304Z,19.07
2023-08-05T15:35:05.357Z,19.10
2023-08-05T15:37:31.708Z,19.22
2023-08-05T15:39:58.085Z,19.07
2023-08-05T15:42:24.534Z,19.02
2023-08-05T15:44:50.916Z,19.05
2023-08-05T15:47:17.338Z,19.15
2023-08-05T15:49:43.768Z,19.15
2023-08-05T15:52:10.242Z,19.25
2023-08-05T15:54:36.636Z,19.17
2023-08-05T15:57:03.148Z,19.15
2023-08-05T15:59:30.383Z,19.11
2023-08-05T16:01:56.800Z,19.07
2023-08-05T16:04:23.211Z,19.03
2023-08-05T16:06:49.641Z,19.03
2023-08-05T16:09:16.050Z,18.95
2023-08-05T16:11:42.448Z,19.07
2023-08-05T16:14:08.840Z,19.11
2023-08-05T16:16:35.231Z,19.14
2023-08-05T16:19:01.637Z,19.02
2023-08-05T16:21:28.004Z,18.90
2023-08-05T16:23:55.115Z,19.02
2023-08-05T16:26:22.608Z,18.85
2023-08-05T16:28:49.040Z,18.78
2023-08-05T16:31:16.886Z,18.93
2023-08-05T16:33:43.653Z,18.85
2023-08-05T16:36:10.290Z,18.96
2023-08-05T16:38:37.274Z,18.79
2023-08-05T16:41:03.681Z,18.82
2023-08-05T16:43:30.547Z,18.73
2023-08-05T16:45:56.999Z,18.83
2023-08-05T16:48:23.553Z,18.83
2023-08-05T16:50:49.939Z,18.73
2023-08-05T16:53:16.402Z,18.65
2023-08-05T16:55:42.894Z,18.57
2023-08-05T16:58:09.308Z,18.56
2023-08-05T17:00:35.733Z,18.48
2023-08-05T17:03:02.206Z,18.46
2023-08-05T17:05:28.641Z,18.43
2023-08-05T17:07:55.027Z,18.47
2023-08-05T17:10:21.487Z,18.47
2023-08-05T17:12:48.104Z,18.43
2023-08-05T17:15:14.528Z,18.43
2023-08-05T17:17:41.032Z,18.42
2023-08-05T17:20:07.958Z,18.42
2023-08-05T17:22:34.672Z,18.35
2023-08-05T17:25:01.068Z,18.18
2023-08-05T17:27:27.451Z,18.20
2023-08-05T17:29:53.857Z,18.25
2023-08-05T17:32:20.367Z,18.20
2023-08-05T17:34:47.143Z,18.25
2023-08-05T17:37:13.590Z,18.33
2023-08-05T17:39:40.607Z,18.16
2023-08-05T17:42:07.334Z,18.22
2023-08-05T17:44:34.058Z,18.13
2023-08-05T17:47:04.289Z,17.98
2023-08-05T17:49:30.889Z,18.04
2023-08-05T17:51:57.340Z,17.98
2023-08-05T17:54:23.769Z,17.92
2023-08-05T17:56:50.514Z,17.95
2023-08-05T17:59:20.570Z,17.90
2023-08-05T18:01:47.819Z,17.83
2023-08-05T18:04:17.426Z,17.78
2023-08-05T18:06:44.420Z,17.78
2023-08-05T18:09:11.023Z,17.92
2023-08-05T18:11:37.542Z,17.80
2023-08-05T18:14:03.956Z,17.66
2023-08-05T18:16:30.376Z,17.64
2023-08-05T18:18:56.786Z,17.59
2023-08-05T18:21:23.195Z,17.67
2023-08-05T18:23:49.569Z,17.70
2023-08-05T18:26:16.024Z,17.58
2023-08-05T18:28:44.946Z,17.81
2023-08-05T18:31:11.994Z,17.73
2023-08-05T18:33:38.395Z,17.64
2023-08-05T18:36:05.171Z,17.42
2023-08-05T18:38:31.825Z,17.36
2023-08-05T18:40:58.240Z,17.33
2023-08-05T18:43:24.613Z,17.23
2023-08-05T18:45:54.298Z,17.10
2023-08-05T18:48:20.771Z,17.26
2023-08-05T18:50:47.154Z,17.15
2023-08-05T18:53:13.555Z,17.17
2023-08-05T18:55:39.956Z,17.34
2023-08-05T18:58:06.378Z,17.32
2023-08-05T19:00:32.816Z,17.20
2023-08-05T19:02:59.340Z,17.35
2023-08-05T19:05:25.801Z,17.28
2023-08-05T19:07:52.168Z,17.19
2023-08-05T19:10:18.592Z,17.30
2023-08-05T19:12:46.225Z,17.20
2023-08-05T19:15:12.607Z,17.14
2023-08-05T19:17:40.082Z,17.06
2023-08-05T19:20:07.244Z,16.95
2023-08-05T19:22:33.657Z,16.96
2023-08-05T19:25:00.049Z,16.84
2023-08-05T19:27:31.821Z,16.96
2023-08-05T19:30:04.200Z,16.93
2023-08-05T19:32:30.599Z,17.06
2023-08-05T19:34:57.012Z,16.70
2023-08-05T19:37:23.411Z,17.05
2023-08-05T19:39:53.001Z,17.11
2023-08-05T19:42:19.554Z,16.89
2023-08-05T19:44:46.041Z,16.78
2023-08-05T19:47:12.508Z,16.70
2023-08-05T19:49:39.179Z,16.66
2023-08-05T19:52:06.005Z,16.62
2023-08-05T19:54:32.424Z,16.52
2023-08-05T19:56:58.819Z,16.77
2023-08-05T19:59:25.198Z,16.59
2023-08-05T20:01:51.780Z,16.58
2023-08-05T20:04:18.477Z,16.59
2023-08-05T20:06:44.838Z,16.53
2023-08-05T20:09:11.226Z,16.54
2023-08-05T20:11:37.607Z,16.49
2023-08-05T20:14:03.975Z,16.44
2023-08-05T20:16:30.379Z,16.46
2023-08-05T20:18:56.850Z,16.52
2023-08-05T20:21:23.256Z,16.58
2023-08-05T20:23:49.648Z,16.54
2023-08-05T20:26:16.045Z,16.52
2023-08-05T20:28:42.415Z,16.42
2023-08-05T20:31:17.375Z,16.33
2023-08-05T20:33:44.862Z,16.30
2023-08-05T20:36:11.592Z,16.32
2023-08-05T20:38:37.976Z,16.38
2023-08-05T20:41:04.409Z,16.39
2023-08-05T20:43:30.923Z,16.42
2023-08-05T20:45:57.515Z,16.35
2023-08-05T20:48:23.899Z,16.19
2023-08-05T20:50:57.024Z,16.19
2023-08-05T20:53:23.807Z,16.16
2023-08-05T20:55:51.801Z,16.16
2023-08-05T20:58:18.387Z,16.16
2023-08-05T21:00:44.782Z,16.16
2023-08-05T21:03:11.304Z,16.19
2023-08-05T21:05:37.810Z,16.19
2023-08-05T21:08:04.514Z,16.20
2023-08-05T21:10:30.915Z,16.15
2023-08-05T21:12:57.348Z,16.28
2023-08-05T21:15:23.708Z,16.19
2023-08-05T21:17:50.128Z,16.16
2023-08-05T21:20:16.629Z,16.15
2023-08-05T21:22:43.039Z,16.08
2023-08-05T21:25:09.481Z,16.19
2023-08-05T21:27:35.881Z,16.18
2023-08-05T21:30:02.352Z,16.07
2023-08-05T21:32:28.793Z,16.09
2023-08-05T21:34:55.282Z,15.83
2023-08-05T21:37:21.712Z,15.97
2023-08-05T21:39:48.280Z,16.02
2023-08-05T21:42:14.832Z,16.05
2023-08-05T21:44:41.243Z,16.03
2023-08-05T21:47:07.685Z,16.02
2023-08-05T21:49:34.045Z,15.96
2023-08-05T21:52:00.429Z,16.09
2023-08-05T21:54:26.801Z,15.97
2023-08-05T21:56:53.200Z,16.03
2023-08-05T21:59:19.616Z,16.11
2023-08-05T22:01:46.023Z,16.07
2023-08-05T22:04:12.507Z,16.05
2023-08-05T22:06:38.886Z,16.11
2023-08-05T22:09:05.280Z,16.08
2023-08-05T22:11:31.833Z,16.07
2023-08-05T22:13:58.240Z,16.06
2023-08-05T22:16:24.698Z,16.01
2023-08-05T22:18:51.117Z,16.05
2023-08-05T22:21:17.698Z,16.06
2023-08-05T22:23:44.093Z,16.05
2023-08-05T22:26:10.501Z,16.04
2023-08-05T22:28:36.956Z,15.95
2023-08-05T22:31:03.373Z,15.98
2023-08-05T22:33:29.744Z,15.95
2023-08-05T22:35:56.123Z,15.90
2023-08-05T22:38:22.861Z,15.90
2023-08-05T22:40:49.283Z,15.88
2023-08-05T22:43:15.672Z,15.80
2023-08-05T22:45:42.085Z,15.71
2023-08-05T22:48:08.478Z,15.62
2023-08-05T22:50:39.650Z,15.71
2023-08-05T22:53:06.049Z,15.67
2023-08-05T22:55:34.777Z,15.72
2023-08-05T22:58:01.308Z,15.71
2023-08-05T23:00:27.678Z,15.76
2023-08-05T23:02:54.449Z,15.73
2023-08-05T23:05:20.898Z,15.72
2023-08-05T23:07:47.294Z,15.69
2023-08-05T23:10:13.658Z,15.57
2023-08-05T23:12:40.092Z,15.67
2023-08-05T23:15:07.069Z,15.63
2023-08-05T23:17:33.494Z,15.67
2023-08-05T23:20:01.046Z,15.59
2023-08-05T23:22:27.435Z,15.63
2023-08-05T23:24:53.829Z,15.56
2023-08-05T23:27:20.203Z,15.55
2023-08-05T23:29:46.676Z,15.51
2023-08-05T23:32:13.070Z,15.46
2023-08-05T23:34:39.479Z,15.45
2023-08-05T23:37:05.925Z,15.39
2023-08-05T23:39:32.310Z,15.50
2023-08-05T23:41:58.682Z,15.48
2023-08-05T23:44:25.053Z,15.48
2023-08-05T23:46:51.531Z,15.54
2023-08-05T23:49:17.937Z,15.56
2023-08-05T23:51:44.322Z,15.63
2023-08-05T23:54:10.738Z,15.76
2023-08-05T23:56:37.112Z,15.92
2023-08-05T23:59:03.515Z,15.34
